createdAt,value
2023-04-12T00:01:39.435Z,9.70
2023-04-12T00:05:47.194Z,9.72
2023-04-12T00:09:48.862Z,9.74
2023-04-12T00:13:50.571Z,9.75
2023-04-12T00:17:52.266Z,9.78
2023-04-12T00:21:54.203Z,9.78
2023-04-12T00:25:55.944Z,9.91
2023-04-12T00:29:57.591Z,9.98
2023-04-12T00:33:59.301Z,10.00
2023-04-12T00:38:03.870Z,9.96
2023-04-12T00:42:05.631Z,9.90
2023-04-12T00:46:08.518Z,9.82
2023-04-12T00:50:10.997Z,9.74
2023-04-12T00:54:14.165Z,9.61
2023-04-12T00:58:17.040Z,9.51
2023-04-12T01:02:18.870Z,9.41
2023-04-12T01:06:44.891Z,9.32
2023-04-12T01:10:58.033Z,9.20
2023-04-12T01:15:06.827Z,9.08
2023-04-12T01:19:29.894Z,8.97
2023-04-12T01:23:48.481Z,8.90
2023-04-12T01:27:53.271Z,8.83
2023-04-12T01:31:59.854Z,8.77
2023-04-12T01:36:07.634Z,8.70
2023-04-12T01:40:10.805Z,8.60
2023-04-12T01:44:15.932Z,8.49
2023-04-12T01:48:18.628Z,8.41
2023-04-12T01:52:23.092Z,8.35
2023-04-12T01:56:29.949Z,8.26
2023-04-12T02:00:36.061Z,8.13
2023-04-12T02:04:38.747Z,8.06
2023-04-12T02:08:40.502Z,7.98
2023-04-12T02:12:43.575Z,7.95
2023-04-12T02:16:46.024Z,7.95
2023-04-12T02:20:47.776Z,7.95
2023-04-12T02:24:49.563Z,7.96
2023-04-12T02:28:52.770Z,7.89
2023-04-12T02:32:56.374Z,7.91
2023-04-12T02:37:07.471Z,7.90
2023-04-12T02:41:09.267Z,7.89
2023-04-12T02:45:11.972Z,7.86
2023-04-12T02:49:15.816Z,7.83
2023-04-12T02:53:18.196Z,7.82
2023-04-12T02:57:25.915Z,7.79
2023-04-12T03:01:27.732Z,7.79
2023-04-12T03:05:48.380Z,7.80
2023-04-12T03:09:52.884Z,7.83
2023-04-12T03:13:57.467Z,7.81
2023-04-12T03:17:59.394Z,7.78
2023-04-12T03:22:06.254Z,7.78
2023-04-12T03:26:12.006Z,7.76
2023-04-12T03:30:19.704Z,7.75
2023-04-12T03:34:22.484Z,7.73
2023-04-12T03:38:28.109Z,7.74
2023-04-12T03:42:33.500Z,7.71
2023-04-12T03:46:48.904Z,7.71
2023-04-12T03:50:55.001Z,7.74
2023-04-12T03:54:58.221Z,7.73
2023-04-12T03:59:02.484Z,7.71
2023-04-12T04:03:05.775Z,7.75
2023-04-12T04:07:21.686Z,7.79
2023-04-12T04:11:25.663Z,7.79
2023-04-12T04:15:33.168Z,7.76
2023-04-12T04:19:36.608Z,7.76
2023-04-12T04:23:40.850Z,7.79
2023-04-12T04:27:47.234Z,7.83
2023-04-12T04:31:50.398Z,7.87
2023-04-12T04:35:52.467Z,7.92
2023-04-12T04:40:00.631Z,7.93
2023-04-12T04:44:04.773Z,7.93
2023-04-12T04:48:08.285Z,7.93
2023-04-12T04:52:10.163Z,7.93
2023-04-12T04:56:12.082Z,7.93
2023-04-12T05:00:17.616Z,7.88
2023-04-12T05:04:25.485Z,7.87
2023-04-12T05:08:28.955Z,7.86
2023-04-12T05:12:31.485Z,7.87
2023-04-12T05:16:33.423Z,7.85
2023-04-12T05:20:35.174Z,7.81
2023-04-12T05:24:37.413Z,7.79
2023-04-12T05:28:39.131Z,7.83
2023-04-12T05:32:41.802Z,7.90
2023-04-12T05:36:44.762Z,7.93
2023-04-12T05:40:46.660Z,7.97
2023-04-12T05:44:51.094Z,7.98
2023-04-12T05:48:56.545Z,7.98
2023-04-12T05:52:58.399Z,7.98
2023-04-12T05:57:04.655Z,8.05
2023-04-12T06:01:06.514Z,8.04
2023-04-12T06:05:09.794Z,8.14
2023-04-12T06:09:14.952Z,8.16
2023-04-12T06:13:16.682Z,8.17
2023-04-12T06:17:21.492Z,8.22
2023-04-12T06:21:23.494Z,8.26
2023-04-12T06:25:27.416Z,8.32
2023-04-12T06:29:32.599Z,8.40
2023-04-12T06:33:38.175Z,8.48
2023-04-12T06:37:44.161Z,8.56
2023-04-12T06:41:47.661Z,8.65
2023-04-12T06:45:54.556Z,8.75
2023-04-12T06:49:58.532Z,8.86
2023-04-12T06:54:00.294Z,8.89
2023-04-12T06:58:02.177Z,8.93
2023-04-12T07:02:05.001Z,8.99
2023-04-12T07:06:17.737Z,9.04
2023-04-12T07:10:29.526Z,9.13
2023-04-12T07:14:31.484Z,9.26
2023-04-12T07:18:33.173Z,9.33
2023-04-12T07:22:35.027Z,9.43
2023-04-12T07:26:36.870Z,9.50
2023-04-12T07:30:41.662Z,9.54
2023-04-12T07:34:45.069Z,9.66
2023-04-12T07:38:47.235Z,9.74
2023-04-12T07:42:48.896Z,9.77
2023-04-12T07:46:50.758Z,9.90
2023-04-12T07:50:52.560Z,9.88
2023-04-12T07:54:55.266Z,9.97
2023-04-12T07:58:58.156Z,10.09
2023-04-12T08:03:01.889Z,10.04
2023-04-12T08:07:04.266Z,10.15
2023-04-12T08:11:06.840Z,10.11
2023-04-12T08:15:09.454Z,10.01
2023-04-12T08:19:12.005Z,10.02
2023-04-12T08:23:13.781Z,10.12
2023-04-12T08:27:17.027Z,10.13
2023-04-12T08:31:19.124Z,10.11
2023-04-12T08:35:20.986Z,9.94
2023-04-12T08:39:23.401Z,10.00
2023-04-12T08:43:28.832Z,10.11
2023-04-12T08:47:31.879Z,10.31
2023-04-12T08:51:34.921Z,10.32
2023-04-12T08:55:36.717Z,10.33
2023-04-12T08:59:42.286Z,10.36
2023-04-12T09:03:44.977Z,10.32
2023-04-12T09:07:46.732Z,10.38
2023-04-12T09:11:48.464Z,10.59
2023-04-12T09:15:50.773Z,10.66
2023-04-12T09:19:53.661Z,10.73
2023-04-12T09:24:04.111Z,10.86
2023-04-12T09:28:20.145Z,10.82
2023-04-12T09:32:27.596Z,10.91
2023-04-12T09:36:42.571Z,10.94
2023-04-12T09:40:46.069Z,11.07
2023-04-12T09:44:48.818Z,11.23
2023-04-12T09:48:57.567Z,11.23
2023-04-12T09:53:03.553Z,11.31
2023-04-12T09:57:08.948Z,11.29
2023-04-12T10:01:11.347Z,11.21
2023-04-12T10:05:16.170Z,11.03
2023-04-12T10:09:18.338Z,11.00
2023-04-12T10:13:21.275Z,11.07
2023-04-12T10:17:23.309Z,10.87
2023-04-12T10:21:27.450Z,11.03
2023-04-12T10:25:31.294Z,11.09
2023-04-12T10:29:38.694Z,11.09
2023-04-12T10:33:42.299Z,11.08
2023-04-12T10:38:06.139Z,11.21
2023-04-12T10:42:16.916Z,11.35
2023-04-12T10:46:40.628Z,11.39
2023-04-12T10:50:42.530Z,11.53
2023-04-12T10:54:44.594Z,11.80
2023-04-12T10:58:48.368Z,12.06
2023-04-12T11:03:08.294Z,12.34
2023-04-12T11:07:12.359Z,12.38
2023-04-12T11:11:22.970Z,12.42
2023-04-12T11:15:29.010Z,12.27
2023-04-12T11:19:53.900Z,12.07
2023-04-12T11:23:58.304Z,12.24
2023-04-12T11:28:00.740Z,12.22
2023-04-12T11:32:05.981Z,12.17
2023-04-12T11:36:09.911Z,12.14
2023-04-12T11:40:12.005Z,11.95
2023-04-12T11:44:15.182Z,11.97
2023-04-12T11:48:17.041Z,12.17
2023-04-12T11:52:19.836Z,12.38
2023-04-12T11:56:22.575Z,12.47
2023-04-12T12:00:25.679Z,12.78
2023-04-12T12:04:29.959Z,12.82
2023-04-12T12:08:31.842Z,12.90
2023-04-12T12:12:35.280Z,12.88
2023-04-12T12:16:38.850Z,12.74
2023-04-12T12:20:49.415Z,12.72
2023-04-12T12:24:55.527Z,12.62
2023-04-12T12:28:58.185Z,12.48
2023-04-12T12:33:00.345Z,12.39
2023-04-12T12:37:02.128Z,12.35
2023-04-12T12:41:24.010Z,12.13
2023-04-12T12:45:29.920Z,11.97
2023-04-12T12:49:31.596Z,11.95
2023-04-12T12:53:33.553Z,11.96
2023-04-12T12:57:35.934Z,12.02
2023-04-12T13:01:37.872Z,11.98
2023-04-12T13:05:39.896Z,12.00
2023-04-12T13:09:41.685Z,12.02
2023-04-12T13:13:43.493Z,12.04
2023-04-12T13:17:45.173Z,12.12
2023-04-12T13:21:52.998Z,12.11
2023-04-12T13:25:56.522Z,12.13
2023-04-12T13:30:00.521Z,12.09
2023-04-12T13:34:02.361Z,11.89
2023-04-12T13:38:04.062Z,11.61
2023-04-12T13:42:08.520Z,11.55
2023-04-12T13:46:10.224Z,11.59
2023-04-12T13:50:13.629Z,11.58
2023-04-12T13:54:16.017Z,11.53
2023-04-12T13:58:18.975Z,11.44
2023-04-12T14:02:20.707Z,11.37
2023-04-12T14:06:23.973Z,11.45
2023-04-12T14:10:25.678Z,11.78
2023-04-12T14:14:28.154Z,12.12
2023-04-12T14:18:31.921Z,12.45
2023-04-12T14:22:33.659Z,12.43
2023-04-12T14:26:39.936Z,12.24
2023-04-12T14:30:42.528Z,12.08
2023-04-12T14:34:44.508Z,11.97
2023-04-12T14:38:47.050Z,11.88
2023-04-12T14:42:48.806Z,11.87
2023-04-12T14:46:50.633Z,11.76
2023-04-12T14:50:52.781Z,11.68
2023-04-12T14:54:55.197Z,11.69
2023-04-12T14:58:56.984Z,11.68
2023-04-12T15:03:01.132Z,11.69
2023-04-12T15:07:03.065Z,11.67
2023-04-12T15:11:05.241Z,11.62
2023-04-12T15:15:07.563Z,11.53
2023-04-12T15:19:17.327Z,11.49
2023-04-12T15:23:21.568Z,11.51
2023-04-12T15:27:23.533Z,11.58
2023-04-12T15:31:26.314Z,11.82
2023-04-12T15:35:29.868Z,12.12
2023-04-12T15:39:32.006Z,12.19
2023-04-12T15:43:33.728Z,12.11
2023-04-12T15:47:35.709Z,12.02
2023-04-12T15:51:38.407Z,11.91
2023-04-12T15:55:44.757Z,11.91
2023-04-12T15:59:46.564Z,12.01
2023-04-12T16:03:50.149Z,12.20
2023-04-12T16:07:54.247Z,13.17
2023-04-12T16:11:56.058Z,13.56
2023-04-12T16:15:57.793Z,13.42
2023-04-12T16:19:59.674Z,13.82
2023-04-12T16:24:01.455Z,15.39
2023-04-12T16:28:03.926Z,17.01
2023-04-12T16:32:07.592Z,17.25
2023-04-12T16:36:09.570Z,16.89
2023-04-12T16:40:13.079Z,16.87
2023-04-12T16:44:18.950Z,17.49
2023-04-12T16:48:22.897Z,17.76
2023-04-12T16:52:25.552Z,17.64
2023-04-12T16:56:27.206Z,17.01
2023-04-12T17:00:29.549Z,16.21
2023-04-12T17:04:31.721Z,15.52
2023-04-12T17:08:33.399Z,15.13
2023-04-12T17:12:35.078Z,15.24
2023-04-12T17:16:38.329Z,15.41
2023-04-12T17:20:40.635Z,15.06
2023-04-12T17:24:42.719Z,14.29
2023-04-12T17:28:44.801Z,14.16
2023-04-12T17:32:47.757Z,14.55
2023-04-12T17:36:49.554Z,14.14
2023-04-12T17:40:52.932Z,13.73
2023-04-12T17:44:54.611Z,13.65
2023-04-12T17:48:59.663Z,13.71
2023-04-12T17:53:02.086Z,13.20
2023-04-12T17:57:04.860Z,12.72
2023-04-12T18:01:06.819Z,12.28
2023-04-12T18:05:08.997Z,11.89
2023-04-12T18:09:11.508Z,11.67
2023-04-12T18:13:13.160Z,11.49
2023-04-12T18:17:14.931Z,11.30
2023-04-12T18:21:21.103Z,11.15
2023-04-12T18:25:23.074Z,10.99
2023-04-12T18:29:25.969Z,10.80
2023-04-12T18:33:29.884Z,10.67
2023-04-12T18:37:32.061Z,10.67
2023-04-12T18:41:34.178Z,10.62
2023-04-12T18:45:40.563Z,10.65
2023-04-12T18:49:42.549Z,10.70
2023-04-12T18:53:44.315Z,10.71
2023-04-12T18:57:48.555Z,10.72
2023-04-12T19:01:51.609Z,10.77
2023-04-12T19:05:58.949Z,10.79
2023-04-12T19:10:00.737Z,10.82
2023-04-12T19:14:03.270Z,9.72
2023-04-12T19:18:05.185Z,8.48
2023-04-12T19:22:07.290Z,7.89
2023-04-12T19:26:09.101Z,7.63
2023-04-12T19:30:13.238Z,7.48
2023-04-12T19:34:18.616Z,7.40
2023-04-12T19:38:21.290Z,7.34
2023-04-12T19:42:23.366Z,7.38
2023-04-12T19:46:25.339Z,7.31
2023-04-12T19:50:27.268Z,7.22
2023-04-12T19:54:29.751Z,7.22
2023-04-12T19:58:33.460Z,7.15
2023-04-12T20:02:37.544Z,6.99
2023-04-12T20:06:39.640Z,6.92
2023-04-12T20:10:41.683Z,6.84
2023-04-12T20:14:43.388Z,6.83
2023-04-12T20:18:45.034Z,6.91
2023-04-12T20:22:47.918Z,6.98
2023-04-12T20:26:49.543Z,7.00
2023-04-12T20:30:51.385Z,6.96
2023-04-12T20:34:53.069Z,6.95
2023-04-12T20:38:55.293Z,6.95
2023-04-12T20:42:57.290Z,6.89
2023-04-12T20:47:00.272Z,6.76
2023-04-12T20:51:02.318Z,6.64
2023-04-12T20:55:05.051Z,6.51
2023-04-12T20:59:06.749Z,6.40
2023-04-12T21:03:08.631Z,6.34
2023-04-12T21:07:12.416Z,6.32
2023-04-12T21:11:14.808Z,6.28
2023-04-12T21:15:21.950Z,6.22
2023-04-12T21:19:23.778Z,6.15
2023-04-12T21:23:25.472Z,6.13
2023-04-12T21:27:27.941Z,6.15
2023-04-12T21:31:30.721Z,6.14
2023-04-12T21:35:32.562Z,6.05
2023-04-12T21:39:35.179Z,5.95
2023-04-12T21:43:37.396Z,5.93
2023-04-12T21:47:40.640Z,5.90
2023-04-12T21:51:42.357Z,5.84
2023-04-12T21:55:49.826Z,5.81
2023-04-12T21:59:51.503Z,5.78
2023-04-12T22:03:53.337Z,5.80
2023-04-12T22:07:55.493Z,5.82
2023-04-12T22:11:57.249Z,5.86
2023-04-12T22:16:00.833Z,5.84
2023-04-12T22:20:04.016Z,5.84
2023-04-12T22:24:08.364Z,5.81
2023-04-12T22:28:12.442Z,5.79
2023-04-12T22:32:14.287Z,5.78
2023-04-12T22:36:16.580Z,5.77
2023-04-12T22:40:18.488Z,5.70
2023-04-12T22:44:23.254Z,5.66
2023-04-12T22:48:25.388Z,5.63
2023-04-12T22:52:30.681Z,5.63
2023-04-12T22:56:32.621Z,5.67
2023-04-12T23:00:35.425Z,5.66
2023-04-12T23:04:37.434Z,5.63
2023-04-12T23:08:39.323Z,5.64
2023-04-12T23:12:41.043Z,5.70
2023-04-12T23:16:44.462Z,5.70
2023-04-12T23:20:48.458Z,5.67
2023-04-12T23:24:50.744Z,5.70
2023-04-12T23:28:52.418Z,5.83
2023-04-12T23:32:54.130Z,5.86
2023-04-12T23:36:55.903Z,5.84
2023-04-12T23:40:58.284Z,5.85
2023-04-12T23:45:00.162Z,5.94
2023-04-12T23:49:02.264Z,5.94
2023-04-12T23:53:05.168Z,5.91
2023-04-12T23:57:07.347Z,5.88
